This is the latest recevied weather packets stored in our database for station/object DC1MAK-13. If no packets are shown the sender has not sent any weather packets the latest 10 day(s).
| Time | Temp. | Humidity | Pressure | Rain* | Wind** | Luminosity | Snow |
|---|---|---|---|---|---|---|---|
| 1787848273 | 30° C | 45% | 983.6 hPa | - | - | - | - |
| 1787847964 | 30.56° C | 44% | 983.5 hPa | - | - | - | - |
| 1787847661 | 31.11° C | 42% | 983.4 hPa | - | - | - | - |
| 1787847367 | 31.67° C | 42% | 983.3 hPa | - | - | - | - |
| 1787847357 | 31.67° C | 42% | 983.3 hPa | - | - | - | - |
| 1787847059 | 30° C | 44% | 983.4 hPa | - | - | - | - |
| 1787846756 | 29.44° C | 45% | 983.3 hPa | - | - | - | - |
| 1787846750 | 29.44° C | 45% | 983.3 hPa | - | - | - | - |
| 1787846452 | 30.56° C | 43% | 983.4 hPa | - | - | - | - |
| 1787846447 | 30.56° C | 43% | 983.4 hPa | - | - | - | - |
| 1787846143 | 30.56° C | 42% | 983.4 hPa | - | - | - | - |
| 1787845847 | 31.11° C | 41% | 983.3 hPa | - | - | - | - |
| 1787845840 | 31.11° C | 41% | 983.3 hPa | - | - | - | - |
| 1787845547 | 31.11° C | 41% | 983.2 hPa | - | - | - | - |
| 1787845239 | 30.56° C | 41% | 983.3 hPa | - | - | - | - |
| 1787844935 | 30.56° C | 40% | 983.4 hPa | - | - | - | - |
| 1787844929 | 30.56° C | 40% | 983.4 hPa | - | - | - | - |
| 1787844632 | 31.11° C | 40% | 983.5 hPa | - | - | - | - |
| 1787844626 | 31.11° C | 40% | 983.5 hPa | - | - | - | - |
| 1787844322 | 31.67° C | 39% | 983.6 hPa | - | - | - | - |
| 1787844027 | 32.22° C | 39% | 983.6 hPa | - | - | - | - |
| 1787843727 | 31.67° C | 40% | 983.7 hPa | - | - | - | - |
| 1787843715 | 31.67° C | 40% | 983.7 hPa | - | - | - | - |
| 1787843418 | 30.56° C | 43% | 983.8 hPa | - | - | - | - |
| 1787843114 | 29.44° C | 45% | 983.8 hPa | - | - | - | - |
* Rain since midnight (hover to see other rain measurements)
** Current wind speed in m/s (hover to see current wind gust speed)